createdAt,value
2016-12-24T00:00:08.811Z,933.05
2016-12-24T00:00:36.591Z,933.09
2016-12-24T00:01:04.468Z,933.14
2016-12-24T00:01:32.265Z,933.16
2016-12-24T00:02:00.036Z,933.17
2016-12-24T00:02:27.902Z,933.2
2016-12-24T00:02:55.669Z,933.23
2016-12-24T00:03:23.446Z,933.27
2016-12-24T00:03:51.398Z,933.33
2016-12-24T00:04:19.260Z,933.29
2016-12-24T00:04:47.083Z,933.3
2016-12-24T00:05:14.829Z,933.31
2016-12-24T00:05:42.614Z,933.26
2016-12-24T00:06:10.397Z,933.3
2016-12-24T00:06:38.152Z,933.26
2016-12-24T00:07:05.909Z,933.24
2016-12-24T00:07:33.668Z,933.18
2016-12-24T00:08:01.443Z,933.21
2016-12-24T00:08:29.222Z,933.16
2016-12-24T00:08:57.189Z,933.14
2016-12-24T00:09:24.998Z,933.1
2016-12-24T00:09:52.801Z,933.09
2016-12-24T00:10:20.560Z,933.04
2016-12-24T00:10:48.353Z,933
2016-12-24T00:11:16.192Z,932.97
2016-12-24T00:11:43.978Z,932.95
2016-12-24T00:12:11.887Z,932.9
2016-12-24T00:12:39.600Z,932.86
2016-12-24T00:13:07.356Z,932.82
2016-12-24T00:13:35.146Z,932.76
2016-12-24T00:14:03.046Z,932.72
2016-12-24T00:14:30.857Z,932.7
2016-12-24T00:14:58.578Z,932.72
2016-12-24T00:15:26.276Z,932.67
2016-12-24T00:15:54.039Z,932.66
2016-12-24T00:16:21.819Z,932.64
2016-12-24T00:16:49.685Z,932.67
2016-12-24T00:17:17.440Z,932.65
2016-12-24T00:17:45.280Z,932.65
2016-12-24T00:18:13.070Z,932.66
2016-12-24T00:18:40.878Z,932.69
2016-12-24T00:19:08.956Z,932.69
2016-12-24T00:19:36.797Z,932.69
2016-12-24T00:20:04.567Z,932.73
2016-12-24T00:20:32.444Z,932.71
2016-12-24T00:21:00.219Z,932.72
2016-12-24T00:21:28.023Z,932.8
2016-12-24T00:21:55.825Z,932.79
2016-12-24T00:22:23.621Z,932.85
2016-12-24T00:22:51.392Z,932.79
2016-12-24T00:23:19.180Z,932.79
2016-12-24T00:23:46.933Z,932.79
2016-12-24T00:24:14.878Z,932.82
2016-12-24T00:24:42.657Z,932.81
2016-12-24T00:25:10.399Z,932.84
2016-12-24T00:25:38.176Z,932.83
2016-12-24T00:26:05.945Z,932.85
2016-12-24T00:26:33.800Z,932.87
2016-12-24T00:27:01.592Z,932.88
2016-12-24T00:27:29.384Z,932.82
2016-12-24T00:27:57.128Z,932.84
2016-12-24T00:28:24.862Z,932.84
2016-12-24T00:28:52.759Z,932.88
2016-12-24T00:29:20.678Z,932.83
2016-12-24T00:29:48.451Z,932.87
2016-12-24T00:30:16.213Z,932.9
2016-12-24T00:30:43.986Z,932.88
2016-12-24T00:31:11.744Z,932.87
2016-12-24T00:31:39.557Z,932.87
2016-12-24T00:32:07.360Z,932.9
2016-12-24T00:32:35.134Z,932.92
2016-12-24T00:33:02.923Z,932.91
2016-12-24T00:33:30.715Z,932.94
2016-12-24T00:33:58.668Z,932.95
2016-12-24T00:34:26.417Z,932.86
2016-12-24T00:34:54.177Z,932.92
2016-12-24T00:35:21.931Z,932.87
2016-12-24T00:35:49.722Z,932.91
2016-12-24T00:36:17.516Z,932.9
2016-12-24T00:36:45.283Z,932.91
2016-12-24T00:37:13.104Z,932.9
2016-12-24T00:37:40.885Z,932.87
2016-12-24T00:38:08.655Z,932.89
2016-12-24T00:38:36.473Z,932.86
2016-12-24T00:39:04.471Z,932.86
2016-12-24T00:39:32.285Z,932.82
2016-12-24T00:40:00.099Z,932.87
2016-12-24T00:40:27.860Z,932.83
2016-12-24T00:40:55.644Z,932.83
2016-12-24T00:41:23.356Z,932.82
2016-12-24T00:41:51.120Z,932.83
2016-12-24T00:42:18.934Z,932.8
2016-12-24T00:42:46.725Z,932.82
2016-12-24T00:43:14.514Z,932.82
2016-12-24T00:43:42.263Z,932.78
2016-12-24T00:44:10.209Z,932.76
2016-12-24T00:44:37.966Z,932.77
2016-12-24T00:45:05.750Z,932.76
2016-12-24T00:45:33.585Z,932.78
2016-12-24T00:46:01.344Z,932.76
2016-12-24T00:46:29.105Z,932.73
2016-12-24T00:46:56.872Z,932.74
2016-12-24T00:47:24.668Z,932.73
2016-12-24T00:47:52.463Z,932.73
2016-12-24T00:48:20.282Z,932.71
2016-12-24T00:48:48.094Z,932.72
2016-12-24T00:49:16.108Z,932.73
2016-12-24T00:49:43.870Z,932.72
2016-12-24T00:50:11.614Z,932.76
2016-12-24T00:50:39.376Z,932.73
2016-12-24T00:51:07.173Z,932.71
2016-12-24T00:51:34.972Z,932.68
2016-12-24T00:52:02.744Z,932.72
2016-12-24T00:52:30.639Z,932.79
2016-12-24T00:52:58.421Z,932.8
2016-12-24T00:53:26.323Z,932.76
2016-12-24T00:53:54.125Z,932.81
2016-12-24T00:54:22.120Z,932.81
2016-12-24T00:54:49.900Z,932.87
2016-12-24T00:55:17.675Z,932.88
2016-12-24T00:55:45.395Z,932.89
2016-12-24T00:56:13.186Z,932.9
2016-12-24T00:56:40.935Z,932.89
2016-12-24T00:57:08.783Z,932.92
2016-12-24T00:57:36.574Z,932.93
2016-12-24T00:58:04.413Z,932.97
2016-12-24T00:58:32.180Z,932.97
2016-12-24T00:58:59.985Z,932.99
2016-12-24T00:59:27.860Z,932.97
2016-12-24T00:59:55.630Z,932.97
2016-12-24T01:00:23.599Z,933.01
2016-12-24T01:00:51.345Z,933
2016-12-24T01:01:19.132Z,933.03
2016-12-24T01:01:46.912Z,932.99
2016-12-24T01:02:14.725Z,933.06
2016-12-24T01:02:42.520Z,933.04
2016-12-24T01:03:10.271Z,933.04
2016-12-24T01:03:38.023Z,933.03
2016-12-24T01:04:05.793Z,933.04
2016-12-24T01:04:33.786Z,933.03
2016-12-24T01:05:01.526Z,933.06
2016-12-24T01:05:29.322Z,933.1
2016-12-24T01:05:57.190Z,933.09
2016-12-24T01:06:25.034Z,933.1
2016-12-24T01:06:52.825Z,933.1
2016-12-24T01:07:20.623Z,933.08
2016-12-24T01:07:48.410Z,933.06
2016-12-24T01:08:16.161Z,933.08
2016-12-24T01:08:43.912Z,933.09
2016-12-24T01:09:11.692Z,933.06
2016-12-24T01:09:39.689Z,933.07
2016-12-24T01:10:07.557Z,933.04
2016-12-24T01:10:35.309Z,933.09
2016-12-24T01:11:03.151Z,933.1
2016-12-24T01:11:30.919Z,933.1
2016-12-24T01:11:58.677Z,933.07
2016-12-24T01:12:26.480Z,933.08
2016-12-24T01:12:54.255Z,933.11
2016-12-24T01:13:22.009Z,933.15
2016-12-24T01:13:49.787Z,933.18
2016-12-24T01:14:17.622Z,933.17
2016-12-24T01:14:45.617Z,933.18
2016-12-24T01:15:13.490Z,933.22
2016-12-24T01:15:41.271Z,933.25
2016-12-24T01:16:09.076Z,933.32
2016-12-24T01:16:36.935Z,933.34
2016-12-24T01:17:04.711Z,933.36
2016-12-24T01:17:32.465Z,933.4
2016-12-24T01:18:00.280Z,933.42
2016-12-24T01:18:28.077Z,933.4
2016-12-24T01:18:55.897Z,933.44
2016-12-24T01:19:23.672Z,933.47
2016-12-24T01:19:51.646Z,933.47
2016-12-24T01:20:19.559Z,933.49
2016-12-24T01:20:47.397Z,933.52
2016-12-24T01:21:15.194Z,933.56
2016-12-24T01:21:42.980Z,933.58
2016-12-24T01:22:10.788Z,933.6
2016-12-24T01:22:38.573Z,933.61
2016-12-24T01:23:06.414Z,933.66
2016-12-24T01:23:34.169Z,933.66
2016-12-24T01:24:01.906Z,933.69
2016-12-24T01:24:29.695Z,933.7
2016-12-24T01:24:57.658Z,933.77
2016-12-24T01:25:25.410Z,933.77
2016-12-24T01:25:53.164Z,933.81
2016-12-24T01:26:20.950Z,933.82
2016-12-24T01:26:48.726Z,933.82
2016-12-24T01:27:16.527Z,933.86
2016-12-24T01:27:44.311Z,933.88
2016-12-24T01:28:12.093Z,933.89
2016-12-24T01:28:39.866Z,933.91
2016-12-24T01:29:07.677Z,933.95
2016-12-24T01:29:35.487Z,933.95
2016-12-24T01:30:03.428Z,933.96
2016-12-24T01:30:31.265Z,933.97
2016-12-24T01:30:59.023Z,933.96
2016-12-24T01:31:26.805Z,933.97
2016-12-24T01:31:54.598Z,933.94
2016-12-24T01:32:22.416Z,933.96
2016-12-24T01:32:50.161Z,933.96
2016-12-24T01:33:17.985Z,933.97
2016-12-24T01:33:45.734Z,933.92
2016-12-24T01:34:13.621Z,933.94
2016-12-24T01:34:41.422Z,933.95
2016-12-24T01:35:09.377Z,933.94
2016-12-24T01:35:37.160Z,933.93
2016-12-24T01:36:04.962Z,933.92
2016-12-24T01:36:32.780Z,933.89
2016-12-24T01:37:00.552Z,933.85
2016-12-24T01:37:28.309Z,933.92
2016-12-24T01:37:56.115Z,933.88
2016-12-24T01:38:23.924Z,933.88
2016-12-24T01:38:51.762Z,933.84
2016-12-24T01:39:19.522Z,933.87
2016-12-24T01:39:47.266Z,933.87
2016-12-24T01:40:15.220Z,933.85
2016-12-24T01:40:43.023Z,933.83
2016-12-24T01:41:10.898Z,933.82
2016-12-24T01:41:38.715Z,933.8
2016-12-24T01:42:06.471Z,933.84
2016-12-24T01:42:34.222Z,933.81
2016-12-24T01:43:01.982Z,933.82
2016-12-24T01:43:29.743Z,933.87
2016-12-24T01:43:57.551Z,933.82
2016-12-24T01:44:25.330Z,933.81
2016-12-24T01:44:53.115Z,933.85
2016-12-24T01:45:20.994Z,933.85
2016-12-24T01:45:48.762Z,933.83
2016-12-24T01:46:16.514Z,933.82
2016-12-24T01:46:44.296Z,933.82
2016-12-24T01:47:12.047Z,933.85
2016-12-24T01:47:39.868Z,933.79
2016-12-24T01:48:07.697Z,933.83
2016-12-24T01:48:35.503Z,933.78
2016-12-24T01:49:03.355Z,933.78
2016-12-24T01:49:31.121Z,933.78
2016-12-24T01:49:58.879Z,933.77
2016-12-24T01:50:26.744Z,933.77
2016-12-24T01:50:54.562Z,933.79
2016-12-24T01:51:22.449Z,933.73
2016-12-24T01:51:50.156Z,933.74
2016-12-24T01:52:18.029Z,933.7
2016-12-24T01:52:45.856Z,933.71
2016-12-24T01:53:13.738Z,933.69
2016-12-24T01:53:41.507Z,933.65
2016-12-24T01:54:09.331Z,933.69
2016-12-24T01:54:37.076Z,933.67
2016-12-24T01:55:04.935Z,933.65
2016-12-24T01:55:32.801Z,933.64
2016-12-24T01:56:00.590Z,933.61
2016-12-24T01:56:28.343Z,933.6
2016-12-24T01:56:56.160Z,933.61
2016-12-24T01:57:23.918Z,933.57
2016-12-24T01:57:51.719Z,933.55
2016-12-24T01:58:19.479Z,933.58
2016-12-24T01:58:47.258Z,933.56
2016-12-24T01:59:15.008Z,933.58
2016-12-24T01:59:42.780Z,933.53
2016-12-24T02:00:10.543Z,933.52
2016-12-24T02:00:38.519Z,933.52
2016-12-24T02:01:06.401Z,933.49
2016-12-24T02:01:34.292Z,933.53
2016-12-24T02:02:02.097Z,933.47
2016-12-24T02:02:29.909Z,933.49
2016-12-24T02:02:57.708Z,933.48
2016-12-24T02:03:25.530Z,933.47
2016-12-24T02:03:53.400Z,933.49
2016-12-24T02:04:21.294Z,933.47
2016-12-24T02:04:49.052Z,933.44
2016-12-24T02:05:16.847Z,933.47
2016-12-24T02:05:44.848Z,933.46
2016-12-24T02:06:12.731Z,933.43
2016-12-24T02:06:40.537Z,933.42
2016-12-24T02:07:08.348Z,933.46
2016-12-24T02:07:36.145Z,933.43
2016-12-24T02:08:03.886Z,933.44
2016-12-24T02:08:31.647Z,933.46
2016-12-24T02:08:59.459Z,933.42
2016-12-24T02:09:27.262Z,933.41
2016-12-24T02:09:55.094Z,933.42
2016-12-24T02:10:22.884Z,933.42
2016-12-24T02:10:50.838Z,933.43
2016-12-24T02:11:18.621Z,933.41
2016-12-24T02:11:46.490Z,933.41
2016-12-24T02:12:14.292Z,933.4
2016-12-24T02:12:42.073Z,933.41
2016-12-24T02:13:09.849Z,933.38
2016-12-24T02:13:37.602Z,933.41
2016-12-24T02:14:05.402Z,933.44
2016-12-24T02:14:33.247Z,933.39
2016-12-24T02:15:01.059Z,933.42
2016-12-24T02:15:28.842Z,933.39
2016-12-24T02:15:56.798Z,933.42
2016-12-24T02:16:24.627Z,933.37
2016-12-24T02:16:52.510Z,933.39
2016-12-24T02:17:20.269Z,933.37
2016-12-24T02:17:48.043Z,933.35
2016-12-24T02:18:15.809Z,933.29
2016-12-24T02:18:43.716Z,933.31
2016-12-24T02:19:11.482Z,933.24
2016-12-24T02:19:39.240Z,933.28
2016-12-24T02:20:07.041Z,933.22
2016-12-24T02:20:34.834Z,933.19
2016-12-24T02:21:02.671Z,933.21
2016-12-24T02:21:30.444Z,933.16
2016-12-24T02:21:58.288Z,933.15
2016-12-24T02:22:26.020Z,933.11
2016-12-24T02:22:53.791Z,933.1
2016-12-24T02:23:21.552Z,933.09
2016-12-24T02:23:49.331Z,933.08
2016-12-24T02:24:17.051Z,933.04
2016-12-24T02:24:44.903Z,933.02
2016-12-24T02:25:12.707Z,933
2016-12-24T02:25:40.467Z,932.97
2016-12-24T02:26:12.943Z,932.97
2016-12-24T02:26:40.733Z,932.93
2016-12-24T02:27:08.467Z,932.93
2016-12-24T02:27:36.234Z,932.87
2016-12-24T02:28:04.034Z,932.86
2016-12-24T02:28:31.795Z,932.8
2016-12-24T02:28:59.581Z,932.8
2016-12-24T02:29:27.403Z,932.79
2016-12-24T02:29:55.145Z,932.75
2016-12-24T02:30:22.945Z,932.75
2016-12-24T02:30:50.825Z,932.69
2016-12-24T02:31:18.632Z,932.72
2016-12-24T02:31:46.454Z,932.68
2016-12-24T02:32:14.263Z,932.68
2016-12-24T02:32:42.077Z,932.67
2016-12-24T02:33:09.853Z,932.64
2016-12-24T02:33:37.608Z,932.59
2016-12-24T02:34:05.417Z,932.58
2016-12-24T02:34:33.201Z,932.58
2016-12-24T02:35:00.991Z,932.55
2016-12-24T02:35:28.734Z,932.54
2016-12-24T02:35:56.541Z,932.53
2016-12-24T02:36:24.318Z,932.52
2016-12-24T02:36:52.112Z,932.5
2016-12-24T02:37:19.937Z,932.44
2016-12-24T02:37:47.724Z,932.44
2016-12-24T02:38:15.495Z,932.45
2016-12-24T02:38:43.221Z,932.42
2016-12-24T02:39:11.035Z,932.42
2016-12-24T02:39:38.785Z,932.41
2016-12-24T02:40:06.554Z,932.38
2016-12-24T02:40:34.332Z,932.38
2016-12-24T02:41:02.369Z,932.37
2016-12-24T02:41:30.114Z,932.36
2016-12-24T02:41:57.965Z,932.38
2016-12-24T02:42:25.719Z,932.34
2016-12-24T02:42:53.510Z,932.34
2016-12-24T02:43:21.387Z,932.35
2016-12-24T02:43:49.156Z,932.38
2016-12-24T02:44:16.956Z,932.34
2016-12-24T02:44:44.766Z,932.36
2016-12-24T02:45:12.548Z,932.34
2016-12-24T02:45:40.487Z,932.33
2016-12-24T02:46:08.381Z,932.34
2016-12-24T02:46:36.183Z,932.32
2016-12-24T02:47:03.971Z,932.33
2016-12-24T02:47:31.763Z,932.34
2016-12-24T02:47:59.529Z,932.3
2016-12-24T02:48:27.318Z,932.31
2016-12-24T02:48:55.117Z,932.32
2016-12-24T02:49:22.901Z,932.34
2016-12-24T02:49:50.677Z,932.34
2016-12-24T02:50:18.491Z,932.29
2016-12-24T02:50:46.277Z,932.3
2016-12-24T02:51:14.146Z,932.3
2016-12-24T02:51:41.951Z,932.37
2016-12-24T02:52:09.771Z,932.31
2016-12-24T02:52:37.538Z,932.33
2016-12-24T02:53:05.300Z,932.32
2016-12-24T02:53:33.076Z,932.32
2016-12-24T02:54:00.834Z,932.32
2016-12-24T02:54:28.601Z,932.34
2016-12-24T02:54:56.396Z,932.31
2016-12-24T02:55:24.182Z,932.3
2016-12-24T02:55:52.036Z,932.27
2016-12-24T02:56:20.065Z,932.29
2016-12-24T02:56:47.882Z,932.27
2016-12-24T02:57:15.665Z,932.25
2016-12-24T02:57:43.504Z,932.26
2016-12-24T02:58:11.272Z,932.25
2016-12-24T02:58:39.068Z,932.26
2016-12-24T02:59:06.893Z,932.24
2016-12-24T02:59:34.693Z,932.2
2016-12-24T03:00:02.515Z,932.23
2016-12-24T03:00:30.257Z,932.19
2016-12-24T03:00:58.028Z,932.19
2016-12-24T03:01:26.000Z,932.2
2016-12-24T03:01:53.781Z,932.2
2016-12-24T03:02:21.528Z,932.19
2016-12-24T03:02:49.306Z,932.16
2016-12-24T03:03:17.089Z,932.16
2016-12-24T03:03:44.835Z,932.12
2016-12-24T03:04:12.619Z,932.14
2016-12-24T03:04:40.463Z,932.14
2016-12-24T03:05:08.261Z,932.13
2016-12-24T03:05:36.046Z,932.13
2016-12-24T03:06:03.850Z,932.11
2016-12-24T03:06:31.897Z,932.08
2016-12-24T03:06:59.722Z,932.11
2016-12-24T03:07:27.595Z,932.11
2016-12-24T03:07:55.397Z,932.1
2016-12-24T03:08:23.127Z,932.06
2016-12-24T03:08:50.995Z,932.05
2016-12-24T03:09:18.785Z,932.07
2016-12-24T03:09:46.588Z,932.06
2016-12-24T03:10:14.376Z,932.01
2016-12-24T03:10:42.209Z,932.02
2016-12-24T03:11:09.982Z,932.04
2016-12-24T03:11:38.033Z,932.05
2016-12-24T03:12:05.775Z,932.02
2016-12-24T03:12:33.544Z,932.03
2016-12-24T03:13:01.341Z,931.98
2016-12-24T03:13:29.252Z,931.98
2016-12-24T03:13:57.035Z,931.95
2016-12-24T03:14:24.830Z,931.95
2016-12-24T03:14:52.616Z,931.96
2016-12-24T03:15:20.420Z,931.91
2016-12-24T03:15:48.198Z,931.92
2016-12-24T03:16:15.999Z,931.92
2016-12-24T03:16:43.907Z,931.91
2016-12-24T03:17:11.686Z,931.9
2016-12-24T03:17:39.488Z,931.9
2016-12-24T03:18:07.267Z,931.9
2016-12-24T03:18:35.046Z,931.89
2016-12-24T03:19:02.805Z,931.89
2016-12-24T03:19:30.538Z,931.86
2016-12-24T03:19:58.318Z,931.87
2016-12-24T03:20:26.104Z,931.85
2016-12-24T03:20:53.879Z,931.82
2016-12-24T03:21:21.638Z,931.84
2016-12-24T03:21:49.604Z,931.81
2016-12-24T03:22:17.423Z,931.87
2016-12-24T03:22:45.195Z,931.82
2016-12-24T03:23:12.930Z,931.85
2016-12-24T03:23:40.692Z,931.83
2016-12-24T03:24:08.465Z,931.82
2016-12-24T03:24:36.253Z,931.85
2016-12-24T03:25:04.014Z,931.81
2016-12-24T03:25:31.781Z,931.78
2016-12-24T03:25:59.673Z,931.8
2016-12-24T03:26:27.499Z,931.81
2016-12-24T03:26:55.444Z,931.78
2016-12-24T03:27:23.242Z,931.76
2016-12-24T03:27:51.027Z,931.78
2016-12-24T03:28:18.797Z,931.74
2016-12-24T03:28:46.651Z,931.77
2016-12-24T03:29:14.403Z,931.74
2016-12-24T03:29:42.171Z,931.7
2016-12-24T03:30:09.900Z,931.69
2016-12-24T03:30:37.648Z,931.7
2016-12-24T03:31:05.463Z,931.68
2016-12-24T03:31:33.255Z,931.68
2016-12-24T03:32:01.089Z,931.64
2016-12-24T03:32:28.869Z,931.61
2016-12-24T03:32:56.629Z,931.63
2016-12-24T03:33:24.363Z,931.61
2016-12-24T03:33:52.138Z,931.58
2016-12-24T03:34:20.022Z,931.54
2016-12-24T03:34:47.866Z,931.58
2016-12-24T03:35:15.665Z,931.57
2016-12-24T03:35:43.418Z,931.56
2016-12-24T03:36:11.229Z,931.54
2016-12-24T03:36:39.037Z,931.57
2016-12-24T03:37:06.926Z,931.5
2016-12-24T03:37:34.712Z,931.52
2016-12-24T03:38:02.462Z,931.51
2016-12-24T03:38:30.265Z,931.44
2016-12-24T03:38:58.063Z,931.44
2016-12-24T03:39:25.833Z,931.42
2016-12-24T03:39:53.609Z,931.44
2016-12-24T03:40:21.406Z,931.38
2016-12-24T03:40:49.199Z,931.36
2016-12-24T03:41:16.991Z,931.34
2016-12-24T03:41:44.766Z,931.35
2016-12-24T03:42:12.612Z,931.34
2016-12-24T03:42:40.392Z,931.33
2016-12-24T03:43:08.180Z,931.34
2016-12-24T03:43:35.915Z,931.31
2016-12-24T03:44:03.666Z,931.29
2016-12-24T03:44:31.431Z,931.27
2016-12-24T03:44:59.294Z,931.3
2016-12-24T03:45:27.055Z,931.26
2016-12-24T03:45:54.826Z,931.26
2016-12-24T03:46:22.613Z,931.27
2016-12-24T03:46:50.463Z,931.23
2016-12-24T03:47:18.440Z,931.24
2016-12-24T03:47:46.239Z,931.22
2016-12-24T03:48:14.051Z,931.21
2016-12-24T03:48:41.821Z,931.17
2016-12-24T03:49:09.591Z,931.19
2016-12-24T03:49:37.354Z,931.19
2016-12-24T03:50:05.144Z,931.17
2016-12-24T03:50:32.913Z,931.17
2016-12-24T03:51:00.685Z,931.14
2016-12-24T03:51:28.421Z,931.12
2016-12-24T03:51:56.381Z,931.12
2016-12-24T03:52:24.148Z,931.08
2016-12-24T03:52:51.950Z,931.07
2016-12-24T03:53:19.753Z,931.06
2016-12-24T03:53:47.568Z,931.04
2016-12-24T03:54:15.307Z,931.01
2016-12-24T03:54:43.053Z,931.05
2016-12-24T03:55:10.849Z,930.99
2016-12-24T03:55:38.656Z,931
2016-12-24T03:56:06.469Z,930.95
2016-12-24T03:56:34.256Z,930.97
2016-12-24T03:57:02.241Z,930.93
2016-12-24T03:57:30.162Z,930.92
2016-12-24T03:57:57.981Z,930.93
2016-12-24T03:58:25.850Z,930.89
2016-12-24T03:58:53.630Z,930.86
2016-12-24T03:59:21.413Z,930.83
2016-12-24T03:59:49.213Z,930.83
2016-12-24T04:00:16.970Z,930.83
2016-12-24T04:00:44.735Z,930.8
2016-12-24T04:01:12.611Z,930.76
2016-12-24T04:01:40.358Z,930.74
2016-12-24T04:02:08.282Z,930.7
2016-12-24T04:02:36.095Z,930.68
2016-12-24T04:03:03.839Z,930.66
2016-12-24T04:03:31.609Z,930.64
2016-12-24T04:03:59.395Z,930.64
2016-12-24T04:04:27.217Z,930.6
2016-12-24T04:04:55.081Z,930.62
2016-12-24T04:05:22.861Z,930.57
2016-12-24T04:05:50.643Z,930.56
2016-12-24T04:06:18.502Z,930.57
2016-12-24T04:06:46.381Z,930.56
2016-12-24T04:07:14.338Z,930.53
2016-12-24T04:07:42.130Z,930.54
2016-12-24T04:08:09.964Z,930.56
2016-12-24T04:08:37.760Z,930.56
2016-12-24T04:09:05.545Z,930.61
2016-12-24T04:09:33.339Z,930.55
2016-12-24T04:10:01.073Z,930.54
2016-12-24T04:10:28.934Z,930.57
2016-12-24T04:10:56.709Z,930.58
2016-12-24T04:11:24.531Z,930.55
2016-12-24T04:11:52.296Z,930.54
2016-12-24T04:12:20.163Z,930.55
2016-12-24T04:12:47.969Z,930.57
2016-12-24T04:13:15.839Z,930.52
2016-12-24T04:13:43.600Z,930.55
2016-12-24T04:14:11.361Z,930.53
2016-12-24T04:14:39.128Z,930.53
2016-12-24T04:15:06.917Z,930.54
2016-12-24T04:15:34.710Z,930.5
2016-12-24T04:16:02.589Z,930.51
2016-12-24T04:16:30.384Z,930.51
2016-12-24T04:16:58.128Z,930.5
2016-12-24T04:17:26.171Z,930.48
2016-12-24T04:17:53.956Z,930.46
2016-12-24T04:18:21.731Z,930.5
2016-12-24T04:18:49.534Z,930.48
2016-12-24T04:19:17.387Z,930.5
2016-12-24T04:19:45.143Z,930.52
2016-12-24T04:20:12.940Z,930.53
2016-12-24T04:20:40.716Z,930.52
2016-12-24T04:21:08.502Z,930.53
2016-12-24T04:21:36.302Z,930.49
2016-12-24T04:22:04.177Z,930.52
2016-12-24T04:22:32.306Z,930.52
2016-12-24T04:23:00.088Z,930.47
2016-12-24T04:23:27.861Z,930.48
2016-12-24T04:23:55.688Z,930.48
2016-12-24T04:24:23.479Z,930.48
2016-12-24T04:24:51.266Z,930.42
2016-12-24T04:25:19.034Z,930.45
2016-12-24T04:25:46.829Z,930.41
2016-12-24T04:26:14.604Z,930.39
2016-12-24T04:26:42.401Z,930.39
2016-12-24T04:27:10.188Z,930.39
2016-12-24T04:27:38.090Z,930.4
2016-12-24T04:28:05.888Z,930.37
2016-12-24T04:28:33.667Z,930.39
2016-12-24T04:29:01.410Z,930.36
2016-12-24T04:29:29.224Z,930.39
2016-12-24T04:29:56.999Z,930.41
2016-12-24T04:30:24.786Z,930.39
2016-12-24T04:30:52.555Z,930.41
2016-12-24T04:31:20.324Z,930.41
2016-12-24T04:31:48.085Z,930.42
2016-12-24T04:32:15.867Z,930.43
2016-12-24T04:32:43.862Z,930.4
2016-12-24T04:33:11.605Z,930.42
2016-12-24T04:33:39.423Z,930.42
2016-12-24T04:34:07.233Z,930.42
2016-12-24T04:34:34.996Z,930.47
2016-12-24T04:35:02.779Z,930.43
2016-12-24T04:35:30.563Z,930.4
2016-12-24T04:35:58.375Z,930.42
2016-12-24T04:36:26.179Z,930.39
2016-12-24T04:36:53.928Z,930.43
2016-12-24T04:37:21.678Z,930.4
2016-12-24T04:37:49.655Z,930.44
2016-12-24T04:38:17.377Z,930.44
2016-12-24T04:38:45.252Z,930.47
2016-12-24T04:39:13.050Z,930.47
2016-12-24T04:39:40.881Z,930.47
2016-12-24T04:40:08.647Z,930.48
2016-12-24T04:40:36.404Z,930.48
2016-12-24T04:41:04.172Z,930.53
2016-12-24T04:41:31.970Z,930.54
2016-12-24T04:41:59.732Z,930.53
2016-12-24T04:42:27.513Z,930.51
2016-12-24T04:42:55.478Z,930.51
2016-12-24T04:43:23.267Z,930.49
2016-12-24T04:43:51.162Z,930.51
2016-12-24T04:44:18.940Z,930.5
2016-12-24T04:44:46.758Z,930.51
2016-12-24T04:45:14.486Z,930.48
2016-12-24T04:45:42.315Z,930.48
2016-12-24T04:46:10.131Z,930.46
2016-12-24T04:46:37.919Z,930.44
2016-12-24T04:47:05.720Z,930.45
2016-12-24T04:47:33.588Z,930.39
2016-12-24T04:48:01.424Z,930.39
2016-12-24T04:48:29.297Z,930.38
2016-12-24T04:48:57.061Z,930.39
2016-12-24T04:49:24.847Z,930.38
2016-12-24T04:49:52.614Z,930.36
2016-12-24T04:50:20.424Z,930.35
2016-12-24T04:50:48.297Z,930.33
2016-12-24T04:51:16.100Z,930.37
2016-12-24T04:51:43.906Z,930.33
2016-12-24T04:52:11.685Z,930.32
2016-12-24T04:52:39.491Z,930.3
2016-12-24T04:53:07.341Z,930.31
2016-12-24T04:53:35.134Z,930.32
2016-12-24T04:54:02.916Z,930.29
2016-12-24T04:54:30.743Z,930.3
2016-12-24T04:54:58.525Z,930.32
2016-12-24T04:55:26.323Z,930.27
2016-12-24T04:55:54.111Z,930.27
2016-12-24T04:56:21.862Z,930.24
2016-12-24T04:56:49.740Z,930.25
2016-12-24T04:57:17.545Z,930.25
2016-12-24T04:57:45.293Z,930.24
2016-12-24T04:58:13.291Z,930.24
2016-12-24T04:58:41.076Z,930.25
2016-12-24T04:59:08.869Z,930.22
2016-12-24T04:59:36.689Z,930.22
2016-12-24T05:00:04.496Z,930.18
2016-12-24T05:00:32.280Z,930.17
2016-12-24T05:01:00.079Z,930.14
2016-12-24T05:01:27.844Z,930.13
2016-12-24T05:01:55.671Z,930.11
2016-12-24T05:02:23.484Z,930.1
2016-12-24T05:02:51.237Z,930.12
2016-12-24T05:03:19.152Z,930.06
2016-12-24T05:03:46.954Z,930.09
2016-12-24T05:04:14.710Z,930.07
2016-12-24T05:04:42.479Z,930.06
2016-12-24T05:05:10.220Z,930.04
2016-12-24T05:05:38.014Z,930.07
2016-12-24T05:06:05.820Z,930.09
2016-12-24T05:06:33.567Z,930.1
2016-12-24T05:07:01.319Z,930.09
2016-12-24T05:07:29.102Z,930.06
2016-12-24T05:07:56.885Z,930.12
2016-12-24T05:08:24.735Z,930.08
2016-12-24T05:08:52.459Z,930.09
2016-12-24T05:09:20.300Z,930.08
2016-12-24T05:09:48.064Z,930.06
2016-12-24T05:10:15.989Z,930.07
2016-12-24T05:10:43.732Z,930.1
2016-12-24T05:11:11.453Z,930.08
2016-12-24T05:11:39.231Z,930.07
2016-12-24T05:12:06.979Z,930.03
2016-12-24T05:12:34.753Z,930.04
2016-12-24T05:13:02.521Z,930
2016-12-24T05:13:30.456Z,930
2016-12-24T05:13:58.237Z,929.96
2016-12-24T05:14:26.037Z,929.95
2016-12-24T05:14:53.815Z,929.97
2016-12-24T05:15:21.667Z,930
2016-12-24T05:15:49.466Z,929.97
2016-12-24T05:16:17.269Z,929.92
2016-12-24T05:16:45.075Z,929.95
2016-12-24T05:17:12.844Z,929.97
2016-12-24T05:17:40.614Z,929.93
2016-12-24T05:18:08.327Z,929.92
2016-12-24T05:18:36.238Z,929.9
2016-12-24T05:19:04.135Z,929.94
2016-12-24T05:19:31.941Z,929.88
2016-12-24T05:19:59.706Z,929.89
2016-12-24T05:20:27.488Z,929.89
2016-12-24T05:20:55.286Z,929.87
2016-12-24T05:21:23.112Z,929.85
2016-12-24T05:21:50.925Z,929.81
2016-12-24T05:22:18.714Z,929.86
2016-12-24T05:22:46.502Z,929.85
2016-12-24T05:23:14.288Z,929.82
2016-12-24T05:23:42.231Z,929.82
2016-12-24T05:24:10.016Z,929.83
2016-12-24T05:24:37.802Z,929.82
2016-12-24T05:25:05.594Z,929.85
2016-12-24T05:25:33.348Z,929.84
2016-12-24T05:26:01.110Z,929.87
2016-12-24T05:26:28.885Z,929.86
2016-12-24T05:26:56.643Z,929.87
2016-12-24T05:27:24.478Z,929.88
2016-12-24T05:27:52.274Z,929.91
2016-12-24T05:28:20.072Z,929.88
2016-12-24T05:28:47.970Z,929.87
2016-12-24T05:29:15.787Z,929.88
2016-12-24T05:29:43.564Z,929.87
2016-12-24T05:30:11.300Z,929.84
2016-12-24T05:30:39.091Z,929.86
2016-12-24T05:31:06.883Z,929.83
2016-12-24T05:31:34.700Z,929.8
2016-12-24T05:32:02.505Z,929.8
2016-12-24T05:32:30.262Z,929.78
2016-12-24T05:32:58.100Z,929.75
2016-12-24T05:33:25.879Z,929.7
2016-12-24T05:33:53.757Z,929.75
2016-12-24T05:34:21.520Z,929.7
2016-12-24T05:34:49.332Z,929.64
2016-12-24T05:35:17.060Z,929.66
2016-12-24T05:35:44.813Z,929.65
2016-12-24T05:36:12.567Z,929.65
2016-12-24T05:36:40.354Z,929.65
2016-12-24T05:37:08.115Z,929.64
2016-12-24T05:37:35.865Z,929.61
2016-12-24T05:38:03.611Z,929.59
2016-12-24T05:38:31.336Z,929.55
2016-12-24T05:38:59.240Z,929.58
2016-12-24T05:39:27.090Z,929.54
2016-12-24T05:39:54.845Z,929.58
2016-12-24T05:40:22.645Z,929.59
2016-12-24T05:40:50.480Z,929.58
2016-12-24T05:41:18.226Z,929.6
2016-12-24T05:41:46.063Z,929.58
2016-12-24T05:42:13.830Z,929.59
2016-12-24T05:42:41.571Z,929.57
2016-12-24T05:43:09.390Z,929.59
2016-12-24T05:43:37.268Z,929.59
2016-12-24T05:44:05.276Z,929.58
2016-12-24T05:44:33.113Z,929.6
2016-12-24T05:45:00.853Z,929.58
2016-12-24T05:45:28.607Z,929.54
2016-12-24T05:45:56.416Z,929.55
2016-12-24T05:46:24.187Z,929.57
2016-12-24T05:46:51.954Z,929.55
2016-12-24T05:47:19.784Z,929.54
2016-12-24T05:47:47.565Z,929.53
2016-12-24T05:48:15.364Z,929.53